createdAt,value
2018-09-13T00:00:55.476Z,101450.35
2018-09-13T00:03:23.888Z,101446.48
2018-09-13T00:05:52.965Z,101446.48
2018-09-13T00:08:21.352Z,101441.31
2018-09-13T00:10:49.840Z,101440.45
2018-09-13T00:13:18.245Z,101434.42
2018-09-13T00:15:46.661Z,101443.01
2018-09-13T00:18:15.310Z,101439.14
2018-09-13T00:20:43.719Z,101444.73
2018-09-13T00:23:12.132Z,101439.53
2018-09-13T00:25:40.685Z,101440.83
2018-09-13T00:28:09.110Z,101452.88
2018-09-13T00:30:37.519Z,101453.73
2018-09-13T00:33:06.106Z,101456.74
2018-09-13T00:35:34.465Z,101453.27
2018-09-13T00:38:02.916Z,101443.84
2018-09-13T00:40:31.417Z,101450.72
2018-09-13T00:42:59.804Z,101454.98
2018-09-13T00:45:28.209Z,101452.40
2018-09-13T00:47:56.726Z,101450.67
2018-09-13T00:50:25.123Z,101449.81
2018-09-13T00:52:53.489Z,101451.06
2018-09-13T00:55:22.207Z,101450.23
2018-09-13T00:57:50.654Z,101450.63
2018-09-13T01:00:19.052Z,101459.22
2018-09-13T01:02:47.475Z,101457.08
2018-09-13T01:05:15.853Z,101459.27
2018-09-13T01:07:44.701Z,101450.67
2018-09-13T01:10:14.124Z,101452.38
2018-09-13T01:12:42.536Z,101448.03
2018-09-13T01:15:10.932Z,101452.34
2018-09-13T01:17:39.543Z,101446.75
2018-09-13T01:20:07.987Z,101444.17
2018-09-13T01:22:36.437Z,101442.01
2018-09-13T01:25:04.994Z,101442.88
2018-09-13T01:27:33.411Z,101439.43
2018-09-13T01:30:01.840Z,101426.97
2018-09-13T01:32:30.256Z,101423.57
2018-09-13T01:34:58.662Z,101421.85
2018-09-13T01:37:27.120Z,101423.11
2018-09-13T01:39:55.500Z,101427.41
2018-09-13T01:42:23.914Z,101432.56
2018-09-13T01:44:52.288Z,101427.02
2018-09-13T01:47:20.926Z,101423.58
2018-09-13T01:49:49.296Z,101405.94
2018-09-13T01:52:17.717Z,101398.16
2018-09-13T01:54:46.118Z,101398.20
2018-09-13T01:57:14.502Z,101395.62
2018-09-13T01:59:42.931Z,101390.03
2018-09-13T02:02:11.444Z,101382.72
2018-09-13T02:04:39.861Z,101377.95
2018-09-13T02:07:08.284Z,101381.82
2018-09-13T02:09:36.695Z,101381.39
2018-09-13T02:12:05.114Z,101375.38
2018-09-13T02:14:33.534Z,101373.65
2018-09-13T02:17:01.931Z,101372.78
2018-09-13T02:19:30.398Z,101371.50
2018-09-13T02:21:58.783Z,101363.76
2018-09-13T02:24:27.217Z,101365.48
2018-09-13T02:26:55.584Z,101361.14
2018-09-13T02:29:24.977Z,101363.72
2018-09-13T02:31:53.329Z,101368.02
2018-09-13T02:34:22.532Z,101380.05
2018-09-13T02:36:50.922Z,101385.20
2018-09-13T02:39:20.197Z,101372.69
2018-09-13T02:41:49.459Z,101377.86
2018-09-13T02:44:17.907Z,101374.02
2018-09-13T02:46:46.377Z,101370.11
2018-09-13T02:49:14.899Z,101373.13
2018-09-13T02:51:43.298Z,101368.38
2018-09-13T02:54:11.683Z,101367.52
2018-09-13T02:56:40.168Z,101353.25
2018-09-13T02:59:08.580Z,101358.92
2018-09-13T03:01:37.048Z,101353.34
2018-09-13T03:04:05.449Z,101351.63
2018-09-13T03:06:34.023Z,101351.67
2018-09-13T03:09:02.453Z,101345.66
2018-09-13T03:11:32.394Z,101346.09
2018-09-13T03:14:00.787Z,101335.34
2018-09-13T03:16:29.162Z,101338.34
2018-09-13T03:18:57.581Z,101351.20
2018-09-13T03:21:25.943Z,101345.61
2018-09-13T03:23:54.381Z,101360.66
2018-09-13T03:26:22.772Z,101363.67
2018-09-13T03:28:51.256Z,101368.86
2018-09-13T03:31:19.696Z,101370.16
2018-09-13T03:33:48.169Z,101366.29
2018-09-13T03:36:16.555Z,101371.83
2018-09-13T03:38:44.968Z,101374.83
2018-09-13T03:41:13.384Z,101367.91
2018-09-13T03:43:42.955Z,101373.92
2018-09-13T03:46:11.569Z,101374.30
2018-09-13T03:48:40.655Z,101369.58
2018-09-13T03:51:10.053Z,101364.42
2018-09-13T03:53:39.168Z,101360.55
2018-09-13T03:56:07.609Z,101360.96
2018-09-13T03:58:36.009Z,101360.06
2018-09-13T04:01:04.501Z,101352.31
2018-09-13T04:03:32.950Z,101366.49
2018-09-13T04:06:01.424Z,101372.05
2018-09-13T04:08:31.052Z,101368.20
2018-09-13T04:10:59.448Z,101376.80
2018-09-13T04:13:27.878Z,101376.80
2018-09-13T04:15:56.284Z,101370.36
2018-09-13T04:18:24.690Z,101369.13
2018-09-13T04:20:53.661Z,101358.83
2018-09-13T04:23:22.060Z,101354.97
2018-09-13T04:25:50.688Z,101354.52
2018-09-13T04:28:19.152Z,101349.80
2018-09-13T04:30:47.587Z,101358.39
2018-09-13T04:33:16.030Z,101354.52
2018-09-13T04:35:44.466Z,101362.68
2018-09-13T04:38:12.846Z,101364.34
2018-09-13T04:40:41.270Z,101364.30
2018-09-13T04:43:09.687Z,101365.97
2018-09-13T04:45:38.097Z,101363.81
2018-09-13T04:48:06.559Z,101366.41
2018-09-13T04:50:34.976Z,101370.69
2018-09-13T04:53:03.443Z,101366.82
2018-09-13T04:55:33.014Z,101370.23
2018-09-13T04:58:01.419Z,101362.95
2018-09-13T05:00:29.824Z,101358.24
2018-09-13T05:02:58.804Z,101373.34
2018-09-13T05:05:27.229Z,101366.46
2018-09-13T05:07:55.698Z,101369.89
2018-09-13T05:10:24.108Z,101372.48
2018-09-13T05:12:53.179Z,101372.05
2018-09-13T05:15:21.510Z,101362.63
2018-09-13T05:17:50.583Z,101369.91
2018-09-13T05:20:18.999Z,101367.70
2018-09-13T05:22:47.397Z,101374.61
2018-09-13T05:25:15.876Z,101377.64
2018-09-13T05:27:44.253Z,101378.94
2018-09-13T05:30:12.723Z,101377.64
2018-09-13T05:32:41.134Z,101375.94
2018-09-13T05:35:09.549Z,101378.92
2018-09-13T05:37:38.224Z,101376.29
2018-09-13T05:40:06.680Z,101380.64
2018-09-13T05:42:35.071Z,101378.94
2018-09-13T05:45:03.591Z,101376.72
2018-09-13T05:47:32.087Z,101375.42
2018-09-13T05:50:00.617Z,101368.98
2018-09-13T05:52:28.976Z,101371.99
2018-09-13T05:54:57.408Z,101381.44
2018-09-13T05:57:26.849Z,101378.05
2018-09-13T05:59:55.308Z,101386.65
2018-09-13T06:02:23.692Z,101395.63
2018-09-13T06:04:52.105Z,101392.18
2018-09-13T06:07:20.508Z,101393.87
2018-09-13T06:09:48.924Z,101390.02
2018-09-13T06:12:17.357Z,101390.89
2018-09-13T06:14:45.769Z,101386.16
2018-09-13T06:17:14.168Z,101381.45
2018-09-13T06:19:42.688Z,101390.09
2018-09-13T06:22:11.047Z,101384.08
2018-09-13T06:24:39.458Z,101385.80
2018-09-13T06:27:07.976Z,101378.92
2018-09-13T06:29:36.602Z,101377.20
2018-09-13T06:32:05.048Z,101381.09
2018-09-13T06:34:33.478Z,101379.81
2018-09-13T06:37:02.126Z,101379.34
2018-09-13T06:39:30.565Z,101378.00
2018-09-13T06:41:58.980Z,101381.06
2018-09-13T06:44:27.387Z,101385.80
2018-09-13T06:46:55.773Z,101392.67
2018-09-13T06:49:24.177Z,101399.95
2018-09-13T06:51:52.584Z,101396.11
2018-09-13T06:54:21.025Z,101397.84
2018-09-13T06:56:49.459Z,101397.41
2018-09-13T06:59:17.879Z,101393.11
2018-09-13T07:01:46.315Z,101390.55
2018-09-13T07:04:14.694Z,101388.84
2018-09-13T07:06:43.137Z,101395.77
2018-09-13T07:09:13.874Z,101356.58
2018-09-13T07:11:42.677Z,101395.80
2018-09-13T07:14:11.090Z,101393.30
2018-09-13T07:16:39.489Z,101397.94
2018-09-13T07:19:07.888Z,101403.61
2018-09-13T07:21:36.408Z,101406.61
2018-09-13T07:24:05.098Z,101407.48
2018-09-13T07:26:33.558Z,101406.15
2018-09-13T07:29:01.942Z,101405.75
2018-09-13T07:31:30.360Z,101410.83
2018-09-13T07:33:58.769Z,101410.02
2018-09-13T07:36:27.144Z,101408.25
2018-09-13T07:38:55.576Z,101414.69
2018-09-13T07:41:23.969Z,101411.67
2018-09-13T07:43:52.380Z,101418.98
2018-09-13T07:46:20.795Z,101416.41
2018-09-13T07:48:49.203Z,101417.79
2018-09-13T07:51:17.618Z,101419.53
2018-09-13T07:53:46.054Z,101417.86
2018-09-13T07:56:14.610Z,101425.17
2018-09-13T07:58:43.032Z,101421.25
2018-09-13T08:01:11.444Z,101426.42
2018-09-13T08:03:39.869Z,101423.87
2018-09-13T08:06:08.712Z,101425.55
2018-09-13T08:08:37.117Z,101426.39
2018-09-13T08:11:05.565Z,101420.39
2018-09-13T08:13:33.962Z,101422.11
2018-09-13T08:16:02.404Z,101420.44
2018-09-13T08:18:30.763Z,101427.34
2018-09-13T08:20:59.192Z,101425.98
2018-09-13T08:23:27.741Z,101425.61
2018-09-13T08:25:56.187Z,101430.34
2018-09-13T08:28:24.550Z,101430.35
2018-09-13T08:30:52.955Z,101432.49
2018-09-13T08:33:21.395Z,101432.12
2018-09-13T08:35:49.796Z,101436.00
2018-09-13T08:38:18.228Z,101438.09
2018-09-13T08:40:46.712Z,101438.58
2018-09-13T08:43:15.159Z,101445.89
2018-09-13T08:45:43.497Z,101441.59
2018-09-13T08:48:11.992Z,101442.92
2018-09-13T08:50:40.400Z,101442.92
2018-09-13T08:53:08.876Z,101444.60
2018-09-13T08:55:37.301Z,101439.88
2018-09-13T08:58:05.820Z,101444.60
2018-09-13T09:00:34.340Z,101453.19
2018-09-13T09:03:02.774Z,101446.31
2018-09-13T09:05:31.214Z,101448.89
2018-09-13T09:07:59.603Z,101448.89
2018-09-13T09:10:28.005Z,101451.91
2018-09-13T09:12:56.408Z,101448.89
2018-09-13T09:15:24.987Z,101447.59
2018-09-13T09:17:53.377Z,101451.90
2018-09-13T09:20:21.838Z,101448.89
2018-09-13T09:22:50.196Z,101451.47
2018-09-13T09:25:18.606Z,101448.02
2018-09-13T09:27:46.988Z,101452.34
2018-09-13T09:30:15.440Z,101453.25
2018-09-13T09:32:44.497Z,101458.42
2018-09-13T09:35:12.941Z,101453.20
2018-09-13T09:37:41.358Z,101460.06
2018-09-13T09:40:10.384Z,101455.28
2018-09-13T09:42:38.808Z,101456.59
2018-09-13T09:45:07.260Z,101452.34
2018-09-13T09:47:35.645Z,101453.63
2018-09-13T09:50:04.281Z,101458.80
2018-09-13T09:52:32.792Z,101468.23
2018-09-13T09:55:01.120Z,101465.66
2018-09-13T09:57:29.546Z,101470.02
2018-09-13T09:59:57.958Z,101472.23
2018-09-13T10:02:26.352Z,101465.78
2018-09-13T10:04:54.777Z,101462.77
2018-09-13T10:07:23.248Z,101459.33
2018-09-13T10:09:51.756Z,101458.50
2018-09-13T10:12:20.281Z,101454.20
2018-09-13T10:14:53.916Z,101455.92
2018-09-13T10:17:27.635Z,101456.31
2018-09-13T10:20:01.445Z,101461.91
2018-09-13T10:22:35.014Z,101456.75
2018-09-13T10:25:08.806Z,101455.06
2018-09-13T10:27:42.508Z,101457.21
2018-09-13T10:30:16.309Z,101452.48
2018-09-13T10:32:50.087Z,101451.61
2018-09-13T10:35:23.661Z,101446.42
2018-09-13T10:37:57.387Z,101442.58
2018-09-13T10:40:31.161Z,101440.40
2018-09-13T10:43:04.949Z,101441.69
2018-09-13T10:45:38.513Z,101444.30
2018-09-13T10:48:12.215Z,101448.17
2018-09-13T10:50:48.710Z,101447.31
2018-09-13T10:53:22.533Z,101450.78
2018-09-13T10:55:51.654Z,101443.91
2018-09-13T10:58:20.058Z,101442.20
2018-09-13T11:00:48.481Z,101445.64
2018-09-13T11:03:16.896Z,101442.63
2018-09-13T11:05:45.445Z,101445.20
2018-09-13T11:08:14.017Z,101447.37
2018-09-13T11:10:43.189Z,101444.78
2018-09-13T11:13:19.830Z,101449.96
2018-09-13T11:15:48.356Z,101446.95
2018-09-13T11:18:16.767Z,101446.08
2018-09-13T11:20:45.148Z,101447.36
2018-09-13T11:23:13.551Z,101440.93
2018-09-13T11:25:41.937Z,101437.92
2018-09-13T11:28:10.316Z,101437.91
2018-09-13T11:30:38.792Z,101433.59
2018-09-13T11:33:07.341Z,101438.32
2018-09-13T11:35:36.349Z,101440.91
2018-09-13T11:38:04.788Z,101432.75
2018-09-13T11:40:33.539Z,101431.44
2018-09-13T11:43:01.726Z,101431.01
2018-09-13T11:45:30.202Z,101434.45
2018-09-13T11:47:58.629Z,101431.00
2018-09-13T11:50:27.071Z,101427.55
2018-09-13T11:52:55.989Z,101428.83
2018-09-13T11:55:24.412Z,101428.40
2018-09-13T11:57:52.872Z,101426.67
2018-09-13T12:00:21.265Z,101427.11
2018-09-13T12:02:49.661Z,101427.97
2018-09-13T12:05:18.066Z,101426.67
2018-09-13T12:07:46.502Z,101424.07
2018-09-13T12:10:14.944Z,101431.38
2018-09-13T12:12:43.400Z,101425.75
2018-09-13T12:15:11.802Z,101430.03
2018-09-13T12:17:41.070Z,101430.42
2018-09-13T12:20:09.497Z,101428.30
2018-09-13T12:22:37.977Z,101430.88
2018-09-13T12:25:06.297Z,101431.33
2018-09-13T12:27:35.272Z,101424.84
2018-09-13T12:30:04.849Z,101428.26
2018-09-13T12:32:33.975Z,101425.62
2018-09-13T12:35:02.409Z,101422.98
2018-09-13T12:37:30.864Z,101423.42
2018-09-13T12:39:59.293Z,101426.06
2018-09-13T12:42:27.732Z,101418.72
2018-09-13T12:44:56.164Z,101420.88
2018-09-13T12:47:25.439Z,101420.01
2018-09-13T12:49:54.577Z,101421.75
2018-09-13T12:52:22.990Z,101416.58
2018-09-13T12:54:51.402Z,101423.00
2018-09-13T12:57:19.817Z,101414.37
2018-09-13T12:59:48.248Z,101418.66
2018-09-13T13:02:16.728Z,101417.77
2018-09-13T13:04:45.139Z,101407.88
2018-09-13T13:07:13.577Z,101416.04
2018-09-13T13:09:41.985Z,101407.42
2018-09-13T13:12:10.451Z,101401.70
2018-09-13T13:14:38.894Z,101402.50
2018-09-13T13:17:07.331Z,101398.15
2018-09-13T13:19:35.747Z,101392.08
2018-09-13T13:22:04.345Z,101389.87
2018-09-13T13:24:32.840Z,101389.83
2018-09-13T13:27:01.347Z,101383.78
2018-09-13T13:29:29.799Z,101384.62
2018-09-13T13:31:58.251Z,101381.52
2018-09-13T13:34:26.682Z,101381.34
2018-09-13T13:36:55.209Z,101377.81
2018-09-13T13:39:23.624Z,101379.91
2018-09-13T13:41:52.072Z,101367.05
2018-09-13T13:44:20.527Z,101371.38
2018-09-13T13:46:49.339Z,101368.72
2018-09-13T13:49:17.756Z,101372.13
2018-09-13T13:51:46.195Z,101367.28
2018-09-13T13:54:14.636Z,101368.66
2018-09-13T13:56:43.188Z,101363.75
2018-09-13T13:59:11.646Z,101363.82
2018-09-13T14:01:40.061Z,101369.48
2018-09-13T14:04:08.464Z,101357.42
2018-09-13T14:06:36.997Z,101360.88
2018-09-13T14:09:09.109Z,101363.88
2018-09-13T14:11:37.503Z,101358.64
2018-09-13T14:14:05.946Z,101360.28
2018-09-13T14:16:34.897Z,101361.56
2018-09-13T14:19:03.386Z,101358.48
2018-09-13T14:21:31.876Z,101356.29
2018-09-13T14:24:00.365Z,101355.81
2018-09-13T14:26:28.781Z,101352.31
2018-09-13T14:28:57.263Z,101353.23
2018-09-13T14:31:26.310Z,101352.45
2018-09-13T14:33:54.745Z,101343.88
2018-09-13T14:36:23.126Z,101347.75
2018-09-13T14:38:51.836Z,101340.45
2018-09-13T14:41:20.301Z,101339.24
2018-09-13T14:43:48.689Z,101347.34
2018-09-13T14:46:17.136Z,101339.53
2018-09-13T14:48:45.548Z,101336.92
2018-09-13T14:51:14.204Z,101333.95
2018-09-13T14:53:42.723Z,101333.06
2018-09-13T14:56:11.263Z,101323.95
2018-09-13T14:58:40.748Z,101327.88
2018-09-13T15:01:09.295Z,101333.55
2018-09-13T15:03:37.787Z,101325.50
2018-09-13T15:06:06.277Z,101334.61
2018-09-13T15:08:35.344Z,101333.36
2018-09-13T15:11:04.166Z,101326.47
2018-09-13T15:13:32.708Z,101329.03
2018-09-13T15:16:01.140Z,101325.11
2018-09-13T15:18:29.680Z,101329.51
2018-09-13T15:20:58.117Z,101324.73
2018-09-13T15:23:26.566Z,101328.12
2018-09-13T15:25:55.021Z,101325.45
2018-09-13T15:28:23.649Z,101326.16
2018-09-13T15:30:52.068Z,101326.58
2018-09-13T15:33:20.520Z,101330.05
2018-09-13T15:35:48.925Z,101332.23
2018-09-13T15:38:17.436Z,101324.02
2018-09-13T15:40:45.873Z,101319.38
2018-09-13T15:43:14.381Z,101336.14
2018-09-13T15:45:42.788Z,101334.86
2018-09-13T15:48:11.172Z,101335.72
2018-09-13T15:50:39.585Z,101334.39
2018-09-13T15:53:08.035Z,101333.97
2018-09-13T15:55:36.421Z,101337.89
2018-09-13T15:58:04.937Z,101339.61
2018-09-13T16:00:33.354Z,101337.84
2018-09-13T16:03:02.651Z,101332.22
2018-09-13T16:05:31.106Z,101327.89
2018-09-13T16:07:59.523Z,101327.47
2018-09-13T16:10:27.945Z,101324.91
2018-09-13T16:12:56.457Z,101327.11
2018-09-13T16:15:24.824Z,101325.80
2018-09-13T16:17:53.290Z,101321.02
2018-09-13T16:20:21.758Z,101321.86
2018-09-13T16:22:51.309Z,101319.72
2018-09-13T16:25:19.730Z,101318.00
2018-09-13T16:27:48.179Z,101320.59
2018-09-13T16:30:16.633Z,101321.51
2018-09-13T16:32:45.152Z,101316.41
2018-09-13T16:35:13.770Z,101320.31
2018-09-13T16:37:48.064Z,101322.09
2018-09-13T16:40:21.754Z,101325.56
2018-09-13T16:42:55.509Z,101317.41
2018-09-13T16:45:29.573Z,101317.08
2018-09-13T16:48:01.434Z,101319.66
2018-09-13T16:50:29.914Z,101316.23
2018-09-13T16:52:58.294Z,101320.96
2018-09-13T16:55:26.782Z,101322.31
2018-09-13T16:57:56.221Z,101326.59
2018-09-13T17:00:25.528Z,101326.18
2018-09-13T17:02:54.161Z,101326.25
2018-09-13T17:05:22.650Z,101327.59
2018-09-13T17:07:51.092Z,101329.73
2018-09-13T17:10:19.540Z,101328.85
2018-09-13T17:12:48.052Z,101331.43
2018-09-13T17:15:16.847Z,101332.72
2018-09-13T17:17:45.272Z,101337.52
2018-09-13T17:20:13.730Z,101332.36
2018-09-13T17:22:42.349Z,101337.95
2018-09-13T17:25:10.761Z,101334.06
2018-09-13T17:27:39.221Z,101336.28
2018-09-13T17:30:07.686Z,101340.61
2018-09-13T17:32:36.096Z,101338.08
2018-09-13T17:35:04.620Z,101334.17
2018-09-13T17:37:33.066Z,101338.50
2018-09-13T17:40:01.541Z,101337.68
2018-09-13T17:42:29.925Z,101332.52
2018-09-13T17:44:58.420Z,101334.26
2018-09-13T17:47:26.872Z,101340.29
2018-09-13T17:49:55.290Z,101339.86
2018-09-13T17:52:23.700Z,101347.61
2018-09-13T17:54:52.150Z,101343.73
2018-09-13T17:57:20.613Z,101337.75
2018-09-13T17:59:49.087Z,101343.40
2018-09-13T18:02:17.557Z,101343.41
2018-09-13T18:04:47.398Z,101343.45
2018-09-13T18:07:15.768Z,101349.05
2018-09-13T18:09:44.188Z,101350.35
2018-09-13T18:12:12.629Z,101354.27
2018-09-13T18:14:41.061Z,101353.41
2018-09-13T18:17:09.561Z,101349.98
2018-09-13T18:19:38.028Z,101357.30
2018-09-13T18:22:06.527Z,101357.28
2018-09-13T18:24:34.876Z,101361.62
2018-09-13T18:27:03.350Z,101362.47
2018-09-13T18:29:31.761Z,101364.63
2018-09-13T18:32:00.198Z,101368.94
2018-09-13T18:34:28.616Z,101365.48
2018-09-13T18:36:57.038Z,101371.54
2018-09-13T18:39:25.466Z,101368.98
2018-09-13T18:41:53.836Z,101367.27
2018-09-13T18:44:22.284Z,101377.19
2018-09-13T18:46:50.694Z,101375.03
2018-09-13T18:49:19.111Z,101378.05
2018-09-13T18:51:47.502Z,101386.23
2018-09-13T18:54:15.979Z,101390.98
2018-09-13T18:56:44.337Z,101388.81
2018-09-13T18:59:12.805Z,101391.84
2018-09-13T19:01:41.863Z,101387.55
2018-09-13T19:04:10.324Z,101388.79
2018-09-13T19:06:38.745Z,101386.20
2018-09-13T19:09:09.401Z,101393.98
2018-09-13T19:11:37.828Z,101387.94
2018-09-13T19:14:06.401Z,101390.93
2018-09-13T19:16:34.984Z,101397.82
2018-09-13T19:19:03.412Z,101396.97
2018-09-13T19:21:31.853Z,101399.95
2018-09-13T19:24:00.281Z,101403.83
2018-09-13T19:26:28.728Z,101410.25
2018-09-13T19:28:57.106Z,101405.95
2018-09-13T19:31:25.527Z,101409.81
2018-09-13T19:33:54.030Z,101413.25
2018-09-13T19:36:22.469Z,101412.78
2018-09-13T19:38:50.943Z,101412.83
2018-09-13T19:41:19.509Z,101413.25
2018-09-13T19:43:48.055Z,101414.98
2018-09-13T19:46:16.479Z,101419.70
2018-09-13T19:48:44.997Z,101417.94
2018-09-13T19:51:13.627Z,101417.50
2018-09-13T19:53:42.044Z,101420.90
2018-09-13T19:56:10.447Z,101420.52
2018-09-13T19:58:38.876Z,101425.23
2018-09-13T20:01:07.337Z,101421.80
2018-09-13T20:03:35.853Z,101421.77
2018-09-13T20:06:04.353Z,101427.78
2018-09-13T20:08:32.777Z,101424.77
2018-09-13T20:11:01.203Z,101426.91
2018-09-13T20:13:29.631Z,101430.28
2018-09-13T20:15:58.105Z,101430.69
2018-09-13T20:18:26.583Z,101431.44
2018-09-13T20:20:55.046Z,101429.22
2018-09-13T20:23:23.449Z,101438.22
2018-09-13T20:25:51.913Z,101429.20
2018-09-13T20:28:20.340Z,101430.91
2018-09-13T20:30:48.874Z,101429.97
2018-09-13T20:33:17.276Z,101435.09
2018-09-13T20:35:45.709Z,101430.39
2018-09-13T20:38:14.132Z,101426.52
2018-09-13T20:40:42.556Z,101433.37
2018-09-13T20:43:10.944Z,101427.69
2018-09-13T20:45:39.428Z,101427.66
2018-09-13T20:48:07.917Z,101421.67
2018-09-13T20:50:36.398Z,101426.79
2018-09-13T20:53:04.813Z,101421.64
2018-09-13T20:55:33.209Z,101418.55
2018-09-13T20:58:02.458Z,101417.24
2018-09-13T21:00:30.868Z,101417.27
2018-09-13T21:02:59.289Z,101418.09
2018-09-13T21:05:27.737Z,101417.65
2018-09-13T21:07:56.415Z,101419.79
2018-09-13T21:10:24.834Z,101429.16
2018-09-13T21:12:53.282Z,101426.14
2018-09-13T21:15:21.647Z,101423.99
2018-09-13T21:17:50.114Z,101436.50
2018-09-13T21:20:18.554Z,101433.52
2018-09-13T21:22:46.979Z,101431.36
2018-09-13T21:25:15.405Z,101430.84
2018-09-13T21:27:43.829Z,101435.52
2018-09-13T21:30:12.260Z,101432.79
2018-09-13T21:32:40.711Z,101435.75
2018-09-13T21:35:09.120Z,101434.81
2018-09-13T21:37:37.528Z,101432.67
2018-09-13T21:40:06.067Z,101430.09
2018-09-13T21:42:34.519Z,101424.94
2018-09-13T21:45:03.053Z,101423.66
2018-09-13T21:47:31.593Z,101425.28
2018-09-13T21:50:00.036Z,101428.69
2018-09-13T21:52:29.397Z,101426.56
2018-09-13T21:54:57.773Z,101428.29
2018-09-13T21:57:26.237Z,101429.45
2018-09-13T21:59:55.204Z,101425.58
2018-09-13T22:02:23.645Z,101426.45
2018-09-13T22:04:52.238Z,101428.13
2018-09-13T22:07:20.673Z,101434.88
2018-09-13T22:09:49.149Z,101436.05
2018-09-13T22:12:17.606Z,101438.53
2018-09-13T22:14:46.037Z,101437.62
2018-09-13T22:17:15.829Z,101441.90
2018-09-13T22:19:49.735Z,101446.16
2018-09-13T22:22:18.186Z,101449.88
2018-09-13T22:24:46.668Z,101452.44
2018-09-13T22:27:15.081Z,101449.95
2018-09-13T22:29:43.556Z,101450.09
2018-09-13T22:32:11.997Z,101455.82
2018-09-13T22:34:56.735Z,101454.64
2018-09-13T22:37:25.199Z,101458.00
2018-09-13T22:39:53.659Z,101455.75
2018-09-13T22:42:22.093Z,101458.57
2018-09-13T22:44:50.625Z,101454.73
2018-09-13T22:47:19.009Z,101454.77
2018-09-13T22:49:47.429Z,101464.64
2018-09-13T22:52:15.858Z,101467.61
2018-09-13T22:54:44.389Z,101467.08
2018-09-13T22:57:12.851Z,101463.06
2018-09-13T22:59:41.305Z,101416.33
2018-09-13T23:02:09.792Z,101451.27
2018-09-13T23:04:38.193Z,101467.16
2018-09-13T23:07:06.612Z,101464.19
2018-09-13T23:09:35.597Z,101469.34
2018-09-13T23:12:04.109Z,101462.50
2018-09-13T23:14:32.569Z,101461.56
2018-09-13T23:17:01.009Z,101457.25
2018-09-13T23:19:29.417Z,101462.77
2018-09-13T23:21:57.864Z,101461.40
2018-09-13T23:24:26.242Z,101460.52
2018-09-13T23:26:54.685Z,101460.92
2018-09-13T23:29:23.139Z,101459.69
2018-09-13T23:31:51.626Z,101461.51
2018-09-13T23:34:20.068Z,101462.02
2018-09-13T23:36:48.444Z,101458.62
2018-09-13T23:39:16.945Z,101463.77
2018-09-13T23:41:45.331Z,101459.89
2018-09-13T23:44:13.830Z,101463.71
2018-09-13T23:46:42.272Z,101457.77
2018-09-13T23:49:10.704Z,101460.44
2018-09-13T23:51:39.129Z,101458.33
2018-09-13T23:54:07.597Z,101457.47
2018-09-13T23:56:35.970Z,101458.73
2018-09-13T23:59:04.525Z,101448.26
